createdAt,value
2017-11-18T00:00:49.487Z,78.25
2017-11-18T00:03:15.757Z,77.59
2017-11-18T00:05:42.045Z,77.74
2017-11-18T00:08:08.390Z,77.83
2017-11-18T00:10:35.384Z,77.79
2017-11-18T00:13:01.686Z,77.66
2017-11-18T00:15:27.932Z,77.49
2017-11-18T00:17:54.199Z,77.81
2017-11-18T00:20:20.484Z,78.19
2017-11-18T00:22:47.014Z,77.83
2017-11-18T00:25:14.050Z,77.78
2017-11-18T00:27:41.031Z,78.09
2017-11-18T00:30:07.411Z,77.65
2017-11-18T00:32:33.671Z,77.65
2017-11-18T00:34:59.984Z,77.89
2017-11-18T00:37:27.019Z,77.78
2017-11-18T00:39:53.272Z,77.77
2017-11-18T00:42:20.446Z,77.36
2017-11-18T00:44:46.755Z,77.59
2017-11-18T00:47:13.791Z,78.04
2017-11-18T00:49:40.774Z,78.07
2017-11-18T00:52:07.065Z,78.26
2017-11-18T00:54:34.081Z,78.37
2017-11-18T00:57:01.214Z,78.59
2017-11-18T00:59:27.521Z,78.00
2017-11-18T01:01:53.798Z,77.67
2017-11-18T01:04:20.121Z,77.67
2017-11-18T01:06:46.396Z,78.23
2017-11-18T01:09:13.434Z,77.60
2017-11-18T01:11:41.413Z,77.79
2017-11-18T01:14:08.453Z,78.09
2017-11-18T01:16:35.494Z,78.08
2017-11-18T01:19:02.567Z,78.02
2017-11-18T01:21:28.904Z,77.57
2017-11-18T01:23:55.246Z,77.11
2017-11-18T01:26:21.495Z,77.49
2017-11-18T01:28:47.780Z,77.87
2017-11-18T01:31:14.759Z,77.93
2017-11-18T01:33:41.095Z,78.03
2017-11-18T01:36:07.389Z,78.15
2017-11-18T01:38:34.396Z,78.35
2017-11-18T01:41:00.720Z,78.79
2017-11-18T01:43:26.988Z,78.71
2017-11-18T01:45:54.003Z,78.37
2017-11-18T01:48:20.314Z,77.64
2017-11-18T01:50:46.634Z,76.52
2017-11-18T01:53:12.939Z,75.35
2017-11-18T01:55:39.260Z,75.06
2017-11-18T01:58:06.338Z,75.56
2017-11-18T02:00:32.632Z,74.98
2017-11-18T02:02:59.650Z,74.59
2017-11-18T02:05:25.921Z,74.66
2017-11-18T02:07:52.909Z,73.85
2017-11-18T02:10:19.271Z,73.45
2017-11-18T02:12:45.549Z,73.71
2017-11-18T02:15:12.030Z,73.70
2017-11-18T02:17:38.304Z,73.29
2017-11-18T02:20:04.639Z,72.09
2017-11-18T02:22:31.005Z,72.32
2017-11-18T02:24:57.337Z,72.07
2017-11-18T02:27:23.660Z,72.38
2017-11-18T02:29:49.997Z,72.26
2017-11-18T02:32:16.269Z,72.91
2017-11-18T02:34:43.340Z,72.72
2017-11-18T02:37:09.596Z,72.96
2017-11-18T02:39:35.888Z,72.65
2017-11-18T02:42:02.157Z,72.18
2017-11-18T02:44:28.446Z,72.44
2017-11-18T02:46:55.458Z,72.16
2017-11-18T02:49:21.718Z,72.11
2017-11-18T02:51:48.846Z,72.41
2017-11-18T02:54:15.102Z,72.87
2017-11-18T02:56:42.186Z,72.55
2017-11-18T02:59:08.452Z,71.87
2017-11-18T03:01:35.524Z,72.35
2017-11-18T03:04:02.550Z,72.01
2017-11-18T03:06:28.817Z,72.33
2017-11-18T03:08:55.927Z,72.47
2017-11-18T03:11:22.215Z,71.82
2017-11-18T03:13:48.518Z,72.13
2017-11-18T03:16:15.529Z,72.57
2017-11-18T03:18:41.781Z,72.39
2017-11-18T03:21:08.046Z,73.10
2017-11-18T03:23:34.336Z,72.98
2017-11-18T03:26:00.623Z,72.73
2017-11-18T03:28:26.881Z,72.77
2017-11-18T03:30:53.167Z,72.67
2017-11-18T03:33:19.467Z,72.17
2017-11-18T03:35:46.518Z,72.82
2017-11-18T03:38:13.524Z,72.48
2017-11-18T03:40:39.826Z,72.49
2017-11-18T03:43:06.119Z,72.92
2017-11-18T03:45:32.378Z,72.82
2017-11-18T03:47:58.630Z,72.37
2017-11-18T03:50:24.890Z,72.69
2017-11-18T03:52:51.148Z,73.33
2017-11-18T03:55:18.187Z,73.57
2017-11-18T03:57:45.178Z,73.82
2017-11-18T04:00:11.426Z,74.12
2017-11-18T04:02:37.716Z,74.40
2017-11-18T04:05:04.015Z,75.07
2017-11-18T04:07:30.286Z,74.83
2017-11-18T04:09:56.585Z,74.71
2017-11-18T04:12:23.633Z,74.11
2017-11-18T04:14:50.678Z,74.51
2017-11-18T04:17:17.694Z,74.88
2017-11-18T04:19:43.978Z,74.83
2017-11-18T04:22:10.278Z,74.76
2017-11-18T04:24:37.311Z,74.86
2017-11-18T04:27:03.577Z,75.01
2017-11-18T04:29:30.629Z,75.46
2017-11-18T04:31:57.692Z,75.67
2017-11-18T04:34:23.962Z,75.68
2017-11-18T04:36:50.462Z,75.74
2017-11-18T04:39:16.757Z,75.86
2017-11-18T04:41:43.780Z,76.26
2017-11-18T04:44:10.056Z,76.47
2017-11-18T04:46:36.408Z,76.48
2017-11-18T04:49:02.699Z,76.21
2017-11-18T04:51:29.728Z,76.20
2017-11-18T04:53:56.024Z,76.33
2017-11-18T04:56:23.682Z,76.55
2017-11-18T04:58:49.966Z,76.45
2017-11-18T05:01:17.816Z,76.71
2017-11-18T05:03:44.103Z,76.72
2017-11-18T05:06:10.386Z,77.17
2017-11-18T05:08:37.489Z,77.34
2017-11-18T05:11:03.921Z,77.15
2017-11-18T05:13:30.253Z,76.67
2017-11-18T05:15:56.543Z,75.78
2017-11-18T05:18:23.553Z,76.16
2017-11-18T05:20:49.841Z,76.31
2017-11-18T05:23:16.129Z,76.70
2017-11-18T05:25:42.466Z,77.26
2017-11-18T05:28:09.495Z,77.51
2017-11-18T05:30:35.756Z,77.81
2017-11-18T05:33:02.034Z,77.48
2017-11-18T05:35:28.341Z,78.04
2017-11-18T05:37:54.654Z,78.68
2017-11-18T05:40:21.668Z,78.55
2017-11-18T05:42:48.114Z,78.14
2017-11-18T05:45:14.413Z,77.95
2017-11-18T05:47:40.688Z,77.39
2017-11-18T05:50:07.740Z,77.94
2017-11-18T05:52:34.777Z,78.00
2017-11-18T05:55:01.818Z,78.03
2017-11-18T05:57:28.139Z,78.07
2017-11-18T05:59:54.417Z,78.02
2017-11-18T06:02:20.804Z,78.16
2017-11-18T06:04:47.871Z,78.51
2017-11-18T06:07:14.145Z,78.10
2017-11-18T06:09:40.441Z,78.43
2017-11-18T06:12:06.761Z,78.23
2017-11-18T06:14:33.122Z,78.15
2017-11-18T06:16:59.408Z,78.59
2017-11-18T06:19:25.689Z,78.89
2017-11-18T06:21:51.979Z,78.92
2017-11-18T06:24:18.293Z,78.66
2017-11-18T06:26:44.571Z,80.58
2017-11-18T06:29:10.879Z,81.39
2017-11-18T06:31:37.941Z,81.57
2017-11-18T06:34:04.947Z,81.65
2017-11-18T06:36:31.227Z,81.66
2017-11-18T06:38:57.483Z,81.06
2017-11-18T06:41:23.764Z,80.89
2017-11-18T06:43:50.773Z,80.35
2017-11-18T06:46:17.074Z,79.95
2017-11-18T06:48:43.399Z,80.52
2017-11-18T06:51:09.706Z,81.14
2017-11-18T06:53:36.703Z,81.36
2017-11-18T06:56:03.018Z,81.15
2017-11-18T06:58:29.288Z,80.61
2017-11-18T07:00:55.612Z,80.59
2017-11-18T07:03:22.693Z,80.83
2017-11-18T07:05:49.764Z,80.47
2017-11-18T07:08:16.043Z,80.31
2017-11-18T07:10:42.414Z,79.93
2017-11-18T07:13:08.703Z,79.83
2017-11-18T07:15:35.011Z,79.76
2017-11-18T07:18:01.353Z,79.74
2017-11-18T07:20:27.625Z,79.71
2017-11-18T07:22:54.693Z,79.57
2017-11-18T07:25:21.066Z,79.30
2017-11-18T07:27:47.329Z,79.19
2017-11-18T07:30:14.375Z,79.18
2017-11-18T07:32:41.404Z,78.97
2017-11-18T07:35:07.738Z,78.27
2017-11-18T07:37:34.854Z,77.88
2017-11-18T07:40:01.175Z,77.64
2017-11-18T07:42:27.452Z,77.50
2017-11-18T07:44:53.720Z,77.08
2017-11-18T07:47:20.012Z,77.19
2017-11-18T07:49:47.099Z,76.85
2017-11-18T07:52:13.391Z,76.49
2017-11-18T07:54:40.418Z,74.99
2017-11-18T07:57:06.779Z,74.40
2017-11-18T07:59:33.055Z,74.09
2017-11-18T08:01:59.387Z,74.12
2017-11-18T08:04:25.687Z,73.97
2017-11-18T08:06:52.707Z,72.88
2017-11-18T08:09:18.985Z,72.13
2017-11-18T08:11:45.266Z,71.96
2017-11-18T08:14:11.680Z,71.95
2017-11-18T08:16:37.995Z,71.41
2017-11-18T08:19:04.328Z,71.09
2017-11-18T08:21:30.729Z,70.77
2017-11-18T08:23:57.008Z,71.58
2017-11-18T08:26:23.309Z,72.27
2017-11-18T08:28:49.635Z,71.83
2017-11-18T08:31:16.122Z,71.52
2017-11-18T08:33:42.417Z,70.99
2017-11-18T08:36:27.469Z,71.00
2017-11-18T08:38:53.747Z,70.91
2017-11-18T08:41:20.001Z,70.93
2017-11-18T08:43:47.044Z,70.10
2017-11-18T08:46:14.079Z,69.93
2017-11-18T08:48:40.369Z,69.21
2017-11-18T08:51:06.673Z,68.62
2017-11-18T08:53:32.953Z,68.00
2017-11-18T08:55:59.331Z,67.50
2017-11-18T08:58:25.685Z,67.31
2017-11-18T09:00:52.121Z,67.49
2017-11-18T09:03:18.448Z,67.25
2017-11-18T09:05:44.824Z,66.86
2017-11-18T09:08:11.101Z,66.34
2017-11-18T09:10:37.540Z,66.05
2017-11-18T09:13:03.902Z,66.58
2017-11-18T09:15:30.253Z,65.00
2017-11-18T09:17:56.550Z,64.13
2017-11-18T09:20:22.862Z,64.09
2017-11-18T09:22:49.166Z,62.61
2017-11-18T09:25:16.176Z,63.08
2017-11-18T09:27:42.466Z,62.87
2017-11-18T09:30:08.805Z,62.92
2017-11-18T09:32:35.099Z,61.75
2017-11-18T09:35:01.392Z,59.77
2017-11-18T09:37:27.678Z,60.37
2017-11-18T09:39:54.723Z,60.99
2017-11-18T09:42:21.003Z,60.11
2017-11-18T09:44:47.319Z,59.90
2017-11-18T09:47:13.621Z,59.25
2017-11-18T09:49:40.691Z,58.56
2017-11-18T09:52:07.053Z,58.54
2017-11-18T09:54:33.359Z,58.58
2017-11-18T09:56:59.690Z,58.57
2017-11-18T09:59:25.987Z,59.54
2017-11-18T10:01:53.034Z,58.71
2017-11-18T10:04:20.131Z,57.23
2017-11-18T10:06:46.416Z,58.60
2017-11-18T10:09:13.476Z,57.71
2017-11-18T10:11:39.793Z,57.42
2017-11-18T10:14:06.937Z,57.77
2017-11-18T10:16:34.173Z,57.88
2017-11-18T10:19:00.501Z,57.40
2017-11-18T10:21:27.537Z,57.67
2017-11-18T10:23:53.838Z,57.21
2017-11-18T10:26:20.175Z,57.28
2017-11-18T10:28:46.510Z,57.79
2017-11-18T10:31:12.807Z,56.61
2017-11-18T10:33:39.112Z,57.09
2017-11-18T10:36:05.443Z,56.15
2017-11-18T10:38:33.022Z,56.18
2017-11-18T10:41:00.072Z,56.74
2017-11-18T10:43:27.206Z,56.41
2017-11-18T10:45:54.267Z,56.27
2017-11-18T10:48:21.320Z,54.95
2017-11-18T10:50:47.616Z,55.18
2017-11-18T10:53:13.967Z,54.83
2017-11-18T10:55:40.975Z,54.26
2017-11-18T10:58:07.284Z,54.09
2017-11-18T11:00:33.585Z,55.03
2017-11-18T11:03:00.642Z,54.17
2017-11-18T11:05:27.038Z,55.17
2017-11-18T11:07:54.780Z,56.02
2017-11-18T11:10:21.099Z,56.53
2017-11-18T11:12:47.413Z,56.92
2017-11-18T11:15:13.750Z,57.07
2017-11-18T11:17:40.050Z,57.91
2017-11-18T11:20:07.095Z,58.13
2017-11-18T11:22:34.193Z,58.44
2017-11-18T11:25:00.500Z,57.89
2017-11-18T11:27:26.817Z,57.00
2017-11-18T11:29:53.152Z,56.32
2017-11-18T11:32:19.446Z,56.80
2017-11-18T11:34:45.753Z,57.02
2017-11-18T11:37:12.076Z,57.42
2017-11-18T11:39:38.410Z,57.95
2017-11-18T11:42:04.730Z,57.00
2017-11-18T11:44:31.050Z,55.70
2017-11-18T11:46:57.379Z,55.14
2017-11-18T11:49:23.661Z,54.95
2017-11-18T11:51:50.285Z,54.61
2017-11-18T11:54:16.735Z,53.15
2017-11-18T11:56:43.814Z,53.31
2017-11-18T11:59:10.129Z,53.28
2017-11-18T12:01:37.275Z,53.49
2017-11-18T12:04:03.774Z,53.51
2017-11-18T12:06:30.090Z,52.30
2017-11-18T12:08:56.380Z,52.50
2017-11-18T12:11:23.515Z,51.17
2017-11-18T12:13:50.603Z,52.54
2017-11-18T12:16:16.929Z,52.85
2017-11-18T12:18:43.216Z,51.73
2017-11-18T12:21:09.567Z,50.99
2017-11-18T12:23:36.685Z,52.18
2017-11-18T12:26:03.051Z,53.30
2017-11-18T12:28:30.122Z,52.36
2017-11-18T12:30:56.619Z,52.28
2017-11-18T12:33:22.995Z,50.59
2017-11-18T12:35:49.315Z,51.89
2017-11-18T12:38:16.455Z,51.47
2017-11-18T12:40:43.535Z,51.17
2017-11-18T12:43:09.829Z,50.97
2017-11-18T12:45:36.909Z,51.19
2017-11-18T12:48:03.258Z,50.66
2017-11-18T12:50:29.573Z,50.25
2017-11-18T12:52:55.930Z,51.62
2017-11-18T12:55:22.300Z,51.90
2017-11-18T12:57:49.366Z,51.27
2017-11-18T13:00:16.411Z,51.62
2017-11-18T13:02:42.732Z,51.18
2017-11-18T13:05:09.782Z,51.32
2017-11-18T13:07:36.831Z,51.76
2017-11-18T13:10:03.856Z,51.44
2017-11-18T13:12:30.199Z,51.24
2017-11-18T13:14:56.501Z,50.57
2017-11-18T13:17:22.816Z,50.49
2017-11-18T13:19:49.149Z,50.99
2017-11-18T13:22:15.447Z,51.16
2017-11-18T13:24:41.895Z,50.63
2017-11-18T13:27:08.210Z,51.17
2017-11-18T13:29:34.546Z,50.84
2017-11-18T13:32:00.894Z,51.21
2017-11-18T13:34:27.183Z,52.30
2017-11-18T13:36:54.229Z,52.41
2017-11-18T13:39:20.550Z,52.78
2017-11-18T13:41:46.834Z,52.65
2017-11-18T13:44:13.146Z,52.31
2017-11-18T13:46:39.449Z,53.03
2017-11-18T13:49:05.730Z,52.70
2017-11-18T13:51:32.046Z,53.63
2017-11-18T13:53:58.375Z,53.99
2017-11-18T13:56:24.862Z,54.40
2017-11-18T13:58:51.119Z,54.22
2017-11-18T14:01:18.158Z,54.38
2017-11-18T14:03:45.195Z,54.71
2017-11-18T14:06:11.563Z,54.45
2017-11-18T14:08:37.948Z,54.01
2017-11-18T14:11:04.302Z,54.11
2017-11-18T14:13:31.427Z,55.23
2017-11-18T14:15:57.713Z,55.32
2017-11-18T14:18:24.023Z,54.49
2017-11-18T14:20:51.049Z,54.14
2017-11-18T14:23:17.367Z,54.37
2017-11-18T14:25:43.707Z,54.97
2017-11-18T14:28:11.581Z,54.90
2017-11-18T14:30:37.878Z,54.91
2017-11-18T14:33:04.309Z,54.92
2017-11-18T14:35:30.572Z,55.76
2017-11-18T14:37:56.946Z,55.92
2017-11-18T14:40:23.271Z,56.32
2017-11-18T14:42:49.603Z,55.68
2017-11-18T14:45:15.962Z,55.87
2017-11-18T14:47:42.297Z,55.36
2017-11-18T14:50:08.598Z,56.09
2017-11-18T14:52:34.932Z,55.46
2017-11-18T14:55:01.298Z,55.41
2017-11-18T14:57:27.692Z,55.30
2017-11-18T14:59:53.998Z,55.53
2017-11-18T15:02:21.069Z,56.14
2017-11-18T15:04:47.502Z,55.84
2017-11-18T15:07:13.865Z,55.88
2017-11-18T15:09:40.219Z,55.70
2017-11-18T15:12:06.626Z,55.79
2017-11-18T15:14:39.084Z,55.42
2017-11-18T15:20:21.519Z,56.27
2017-11-18T15:22:54.682Z,55.72
2017-11-18T15:25:28.744Z,55.49
2017-11-18T15:28:02.640Z,55.53
2017-11-18T15:30:35.608Z,55.39
2017-11-18T15:33:04.013Z,55.73
2017-11-18T15:35:32.083Z,56.20
2017-11-18T15:41:10.717Z,56.29
2017-11-18T15:43:41.978Z,56.53
2017-11-18T15:46:11.068Z,56.64
2017-11-18T15:48:45.586Z,56.77
2017-11-18T15:51:17.037Z,56.74
2017-11-18T15:53:59.858Z,56.83
2017-11-18T15:56:31.000Z,56.85
2017-11-18T15:58:59.278Z,56.68
2017-11-18T16:01:33.113Z,56.83
2017-11-18T16:04:02.297Z,56.95
2017-11-18T16:06:43.049Z,57.08
2017-11-18T16:09:10.300Z,57.39
2017-11-18T16:11:37.497Z,57.45
2017-11-18T16:14:05.918Z,57.42
2017-11-18T16:16:33.802Z,57.56
2017-11-18T16:19:02.101Z,57.35
2017-11-18T16:21:29.344Z,57.45
2017-11-18T16:23:56.786Z,57.52
2017-11-18T16:26:24.088Z,56.78
2017-11-18T16:28:52.031Z,56.24
2017-11-18T16:31:20.021Z,56.53
2017-11-18T16:33:47.758Z,56.70
2017-11-18T16:36:14.950Z,56.40
2017-11-18T16:38:42.119Z,56.40
2017-11-18T16:41:08.470Z,56.49
2017-11-18T16:43:34.812Z,56.60
2017-11-18T16:46:01.202Z,56.20
2017-11-18T16:48:28.285Z,56.53
2017-11-18T16:50:54.659Z,56.79
2017-11-18T16:53:20.970Z,56.44
2017-11-18T16:55:47.397Z,56.03
2017-11-18T16:58:13.719Z,56.52
2017-11-18T17:00:40.067Z,56.57
2017-11-18T17:03:06.472Z,56.89
2017-11-18T17:05:32.783Z,56.62
2017-11-18T17:07:59.905Z,57.02
2017-11-18T17:10:26.219Z,57.06
2017-11-18T17:12:52.643Z,56.82
2017-11-18T17:15:18.943Z,56.74
2017-11-18T17:17:45.383Z,56.84
2017-11-18T17:20:11.708Z,57.34
2017-11-18T17:22:38.053Z,57.40
2017-11-18T17:25:04.453Z,57.92
2017-11-18T17:27:31.524Z,57.65
2017-11-18T17:29:57.957Z,56.89
2017-11-18T17:32:24.360Z,56.78
2017-11-18T17:34:50.692Z,56.91
2017-11-18T17:37:17.736Z,56.96
2017-11-18T17:39:44.052Z,56.69
2017-11-18T17:42:10.394Z,56.94
2017-11-18T17:44:36.782Z,56.60
2017-11-18T17:47:03.297Z,56.76
2017-11-18T17:49:29.635Z,57.04
2017-11-18T17:51:55.960Z,56.93
2017-11-18T17:54:22.291Z,57.31
2017-11-18T17:56:48.666Z,57.19
2017-11-18T17:59:14.960Z,57.63
2017-11-18T18:01:41.346Z,57.45
2017-11-18T18:04:08.519Z,57.26
2017-11-18T18:06:35.651Z,57.25
2017-11-18T18:09:01.995Z,58.03
2017-11-18T18:11:29.050Z,58.95
2017-11-18T18:13:56.155Z,59.30
2017-11-18T18:16:22.569Z,59.76
2017-11-18T18:18:48.898Z,61.10
2017-11-18T18:21:15.345Z,62.65
2017-11-18T18:23:41.720Z,63.53
2017-11-18T18:26:08.866Z,64.62
2017-11-18T18:28:36.016Z,65.25
2017-11-18T18:31:02.423Z,66.55
2017-11-18T18:33:28.929Z,67.61
2017-11-18T18:35:55.392Z,69.06
2017-11-18T18:38:22.466Z,69.31
2017-11-18T18:40:48.843Z,70.06
2017-11-18T18:43:15.298Z,69.67
2017-11-18T18:45:41.743Z,70.72
2017-11-18T18:48:08.207Z,71.72
2017-11-18T18:50:35.393Z,71.90
2017-11-18T18:53:01.815Z,71.91
2017-11-18T18:55:30.183Z,72.08
2017-11-18T18:57:57.361Z,71.82
2017-11-18T19:00:24.284Z,72.84
2017-11-18T19:02:50.666Z,73.00
2017-11-18T19:05:17.059Z,73.18
2017-11-18T19:07:43.494Z,72.02
2017-11-18T19:10:10.850Z,71.74
2017-11-18T19:12:37.729Z,72.50
2017-11-18T19:15:04.710Z,72.20
2017-11-18T19:17:32.063Z,73.29
2017-11-18T19:20:00.056Z,72.84
2017-11-18T19:22:26.861Z,71.92
2017-11-18T19:24:53.712Z,71.41
2017-11-18T19:27:21.525Z,71.34
2017-11-18T19:29:48.296Z,70.88
2017-11-18T19:32:15.026Z,71.71
2017-11-18T19:34:41.796Z,71.46
2017-11-18T19:37:08.344Z,71.08
2017-11-18T19:39:37.168Z,70.86
2017-11-18T19:42:03.971Z,71.07
2017-11-18T19:44:30.824Z,71.68
2017-11-18T19:46:57.935Z,71.83
2017-11-18T19:49:24.237Z,71.30
2017-11-18T19:51:50.533Z,71.54
2017-11-18T19:54:17.614Z,71.31
2017-11-18T19:56:44.491Z,70.80
2017-11-18T19:59:11.295Z,71.04
2017-11-18T20:01:37.948Z,71.20
2017-11-18T20:04:04.348Z,71.58
2017-11-18T20:06:31.584Z,71.62
2017-11-18T20:08:59.128Z,72.21
2017-11-18T20:11:26.289Z,71.77
2017-11-18T20:13:52.948Z,72.33
2017-11-18T20:16:19.420Z,71.98
2017-11-18T20:18:45.744Z,71.82
2017-11-18T20:21:13.527Z,71.21
2017-11-18T20:23:40.641Z,70.87
2017-11-18T20:26:06.988Z,71.53
2017-11-18T20:28:34.447Z,71.46
2017-11-18T20:31:01.286Z,70.62
2017-11-18T20:33:27.917Z,71.25
2017-11-18T20:35:55.382Z,71.66
2017-11-18T20:38:21.812Z,71.63
2017-11-18T20:40:49.883Z,71.98
2017-11-18T20:43:16.852Z,71.51
2017-11-18T20:45:43.661Z,71.66
2017-11-18T20:48:10.482Z,71.23
2017-11-18T20:50:38.308Z,71.14
2017-11-18T20:53:05.433Z,71.19
2017-11-18T20:55:32.831Z,70.73
2017-11-18T20:58:00.151Z,70.61
2017-11-18T21:00:27.125Z,70.99
2017-11-18T21:02:55.129Z,71.10
2017-11-18T21:05:23.048Z,71.02
2017-11-18T21:07:49.742Z,70.40
2017-11-18T21:10:18.272Z,70.37
2017-11-18T21:12:46.196Z,70.43
2017-11-18T21:15:13.150Z,71.02
2017-11-18T21:17:39.971Z,71.40
2017-11-18T21:20:06.867Z,72.05
2017-11-18T21:22:33.762Z,71.96
2017-11-18T21:25:00.438Z,72.17
2017-11-18T21:27:27.312Z,71.92
2017-11-18T21:29:54.077Z,71.99
2017-11-18T21:32:21.093Z,72.06
2017-11-18T21:34:48.092Z,71.93
2017-11-18T21:37:16.630Z,71.93
2017-11-18T21:39:43.530Z,71.65
2017-11-18T21:42:10.624Z,71.30
2017-11-18T21:44:37.323Z,71.12
2017-11-18T21:47:04.090Z,71.18
2017-11-18T21:49:32.396Z,70.96
2017-11-18T21:51:59.356Z,70.79
2017-11-18T21:54:26.401Z,71.12
2017-11-18T21:56:55.038Z,71.80
2017-11-18T21:59:21.398Z,71.86
2017-11-18T22:01:48.284Z,72.25
2017-11-18T22:04:17.993Z,72.66
2017-11-18T22:06:45.790Z,72.66
2017-11-18T22:09:14.503Z,72.80
2017-11-18T22:11:41.597Z,72.71
2017-11-18T22:14:08.311Z,73.26
2017-11-18T22:16:35.157Z,73.49
2017-11-18T22:19:02.094Z,73.93
2017-11-18T22:21:29.119Z,74.14
2017-11-18T22:23:55.893Z,74.36
2017-11-18T22:26:22.912Z,74.25
2017-11-18T22:28:49.685Z,74.10
2017-11-18T22:31:17.072Z,74.13
2017-11-18T22:33:44.743Z,73.70
2017-11-18T22:36:11.781Z,73.65
2017-11-18T22:38:40.145Z,73.76
2017-11-18T22:41:07.801Z,73.53
2017-11-18T22:43:34.894Z,73.67
2017-11-18T22:46:01.265Z,73.65
2017-11-18T22:48:27.656Z,73.25
2017-11-18T22:50:54.568Z,72.67
2017-11-18T22:53:22.844Z,72.65
2017-11-18T22:55:51.526Z,72.40
2017-11-18T22:58:18.394Z,72.04
2017-11-18T23:00:46.854Z,71.63
2017-11-18T23:03:14.927Z,71.76
2017-11-18T23:05:41.910Z,71.76
2017-11-18T23:08:09.525Z,71.66
2017-11-18T23:10:37.273Z,71.97
2017-11-18T23:13:04.212Z,71.59
2017-11-18T23:15:32.161Z,71.20
2017-11-18T23:18:00.091Z,70.75
2017-11-18T23:20:27.052Z,70.06
2017-11-18T23:22:53.609Z,69.63
2017-11-18T23:25:20.159Z,68.91
2017-11-18T23:27:46.956Z,69.50
2017-11-18T23:30:13.649Z,69.52
2017-11-18T23:32:40.617Z,69.41
2017-11-18T23:35:08.660Z,69.43
2017-11-18T23:37:35.431Z,69.09
2017-11-18T23:40:04.670Z,68.88
2017-11-18T23:42:31.664Z,69.31
2017-11-18T23:44:58.751Z,69.90
2017-11-18T23:47:25.775Z,70.12
2017-11-18T23:49:52.898Z,70.95
2017-11-18T23:52:20.091Z,71.45
2017-11-18T23:54:47.170Z,71.65
2017-11-18T23:57:13.565Z,71.91
2017-11-18T23:59:39.859Z,71.97
